createdAt,value
2023-02-15T00:01:20.164Z,359.37
2023-02-15T00:03:51.766Z,663.37
2023-02-15T00:06:20.725Z,415.63
2023-02-15T00:08:49.215Z,1036.83
2023-02-15T00:11:39.300Z,769.43
2023-02-15T00:14:08.936Z,438.50
2023-02-15T00:16:38.267Z,412.00
2023-02-15T00:19:08.517Z,567.40
2023-02-15T00:21:38.758Z,341.77
2023-02-15T00:24:09.236Z,398.67
2023-02-15T00:26:37.958Z,507.17
2023-02-15T00:29:06.430Z,395.87
2023-02-15T00:31:35.879Z,526.40
2023-02-15T00:34:05.323Z,1988.03
2023-02-15T00:36:35.555Z,225.87
2023-02-15T00:39:04.053Z,244.07
2023-02-15T00:41:32.860Z,241.43
2023-02-15T00:44:02.055Z,321.53
2023-02-15T00:46:30.575Z,253.03
2023-02-15T00:48:59.044Z,213.27
2023-02-15T00:51:28.242Z,186.83
2023-02-15T00:53:58.539Z,174.63
2023-02-15T00:56:29.400Z,178.73
2023-02-15T00:58:57.974Z,200.93
2023-02-15T01:01:26.970Z,204.43
2023-02-15T01:03:55.612Z,293.77
2023-02-15T01:06:24.036Z,219.57
2023-02-15T01:08:52.426Z,203.03
2023-02-15T01:11:23.997Z,229.53
2023-02-15T01:13:54.010Z,212.60
2023-02-15T01:16:23.152Z,213.70
2023-02-15T01:18:51.719Z,274.23
2023-02-15T01:21:22.612Z,220.23
2023-02-15T01:23:51.729Z,185.27
2023-02-15T01:26:39.865Z,230.07
2023-02-15T01:29:08.377Z,208.10
2023-02-15T01:31:36.841Z,232.90
2023-02-15T01:34:05.423Z,237.20
2023-02-15T01:36:36.279Z,259.47
2023-02-15T01:39:05.326Z,555.37
2023-02-15T01:41:33.913Z,428.87
2023-02-15T01:44:04.887Z,214.37
2023-02-15T01:46:39.663Z,1033.43
2023-02-15T01:49:14.436Z,266.03
2023-02-15T01:51:45.102Z,807.10
2023-02-15T01:54:29.881Z,432.90
2023-02-15T01:57:03.440Z,249.80
2023-02-15T01:59:36.205Z,283.73
2023-02-15T02:02:10.146Z,264.83
2023-02-15T02:04:47.283Z,318.97
2023-02-15T02:07:17.275Z,325.70
2023-02-15T02:09:46.665Z,284.90
2023-02-15T02:12:16.652Z,281.03
2023-02-15T02:14:48.802Z,404.53
2023-02-15T02:17:23.801Z,618.87
2023-02-15T02:20:16.459Z,353.90
2023-02-15T02:23:25.590Z,579.77
2023-02-15T02:26:31.276Z,1058.27
2023-02-15T02:29:50.199Z,887.87
2023-02-15T02:32:54.154Z,615.97
2023-02-15T02:35:29.804Z,833.23
2023-02-15T02:38:05.922Z,325.47
2023-02-15T02:40:51.399Z,328.47
2023-02-15T02:43:27.809Z,368.33
2023-02-15T02:46:03.233Z,721.87
2023-02-15T02:48:35.108Z,342.63
2023-02-15T02:51:05.047Z,288.27
2023-02-15T02:53:35.952Z,285.60
2023-02-15T02:56:13.757Z,279.00
2023-02-15T02:58:51.290Z,495.67
2023-02-15T03:01:26.258Z,1425.13
2023-02-15T03:04:00.116Z,548.87
2023-02-15T03:06:38.584Z,330.37
2023-02-15T03:09:15.520Z,364.63
2023-02-15T03:11:46.139Z,403.27
2023-02-15T03:14:16.931Z,512.60
2023-02-15T03:16:48.504Z,304.03
2023-02-15T03:19:22.601Z,306.27
2023-02-15T03:22:04.562Z,299.90
2023-02-15T03:24:37.502Z,281.30
2023-02-15T03:27:09.743Z,307.57
2023-02-15T03:29:40.335Z,312.90
2023-02-15T03:32:13.217Z,300.53
2023-02-15T03:34:42.095Z,325.00
2023-02-15T03:37:18.148Z,302.10
2023-02-15T03:39:53.619Z,316.97
2023-02-15T03:42:28.132Z,261.43
2023-02-15T03:45:00.594Z,252.13
2023-02-15T03:47:32.309Z,270.20
2023-02-15T03:50:25.661Z,267.10
2023-02-15T03:52:57.014Z,245.83
2023-02-15T03:55:25.613Z,251.60
2023-02-15T03:58:12.934Z,226.43
2023-02-15T04:01:08.612Z,232.60
2023-02-15T04:03:42.702Z,221.93
2023-02-15T04:06:12.079Z,249.47
2023-02-15T04:08:55.745Z,266.40
2023-02-15T04:11:24.151Z,260.37
2023-02-15T04:13:57.362Z,278.00
2023-02-15T04:16:25.224Z,265.17
2023-02-15T04:19:11.245Z,240.97
2023-02-15T04:21:57.560Z,252.70
2023-02-15T04:24:45.778Z,238.50
2023-02-15T04:27:14.995Z,210.17
2023-02-15T04:29:44.029Z,195.27
2023-02-15T04:32:12.435Z,194.77
2023-02-15T04:34:40.879Z,239.17
2023-02-15T04:37:09.269Z,212.73
2023-02-15T04:39:39.410Z,225.90
2023-02-15T04:42:07.778Z,218.43
2023-02-15T04:44:36.135Z,277.07
2023-02-15T04:47:04.619Z,254.07
2023-02-15T04:49:33.053Z,298.87
2023-02-15T04:52:01.788Z,237.67
2023-02-15T04:54:30.184Z,288.40
2023-02-15T04:56:59.910Z,293.73
2023-02-15T04:59:28.643Z,297.40
2023-02-15T05:01:57.217Z,338.30
2023-02-15T05:04:26.080Z,300.17
2023-02-15T05:06:54.637Z,297.87
2023-02-15T05:09:23.192Z,304.20
2023-02-15T05:11:51.685Z,321.43
2023-02-15T05:14:21.838Z,330.70
2023-02-15T05:16:50.270Z,327.53
2023-02-15T05:19:18.904Z,349.80
2023-02-15T05:21:47.259Z,378.70
2023-02-15T05:24:41.694Z,419.53
2023-02-15T05:27:29.835Z,429.47
2023-02-15T05:30:00.145Z,480.87
2023-02-15T05:32:28.678Z,481.87
2023-02-15T05:34:57.265Z,522.67
2023-02-15T05:37:25.870Z,526.40
2023-02-15T05:39:54.290Z,536.47
2023-02-15T05:42:22.640Z,500.83
2023-02-15T05:44:51.475Z,441.53
2023-02-15T05:47:21.304Z,512.43
2023-02-15T05:49:49.677Z,498.27
2023-02-15T05:52:18.115Z,530.90
2023-02-15T05:54:46.442Z,722.97
2023-02-15T05:57:15.094Z,612.60
2023-02-15T05:59:43.586Z,526.87
2023-02-15T06:02:12.555Z,510.67
2023-02-15T06:04:42.493Z,508.43
2023-02-15T06:07:11.761Z,498.07
2023-02-15T06:09:41.405Z,496.57
2023-02-15T06:12:09.941Z,504.97
2023-02-15T06:14:38.300Z,498.83
2023-02-15T06:17:06.656Z,510.43
2023-02-15T06:19:35.085Z,472.33
2023-02-15T06:22:07.334Z,441.73
2023-02-15T06:24:35.716Z,469.93
2023-02-15T06:27:04.143Z,471.87
2023-02-15T06:29:32.541Z,481.77
2023-02-15T06:32:01.002Z,494.20
2023-02-15T06:34:30.329Z,526.17
2023-02-15T06:36:58.867Z,512.37
2023-02-15T06:39:28.686Z,534.00
2023-02-15T06:41:57.089Z,549.00
2023-02-15T06:44:25.569Z,531.90
2023-02-15T06:46:54.043Z,547.43
2023-02-15T06:49:22.437Z,526.70
2023-02-15T06:51:50.862Z,536.00
2023-02-15T06:54:19.367Z,516.13
2023-02-15T06:56:49.214Z,566.80
2023-02-15T06:59:17.897Z,561.57
2023-02-15T07:01:46.356Z,554.50
2023-02-15T07:04:14.728Z,540.60
2023-02-15T07:06:43.193Z,586.83
2023-02-15T07:09:12.188Z,567.17
2023-02-15T07:11:58.353Z,578.77
2023-02-15T07:14:29.025Z,609.03
2023-02-15T07:16:57.559Z,563.40
2023-02-15T07:19:26.001Z,522.37
2023-02-15T07:21:54.346Z,545.30
2023-02-15T07:24:22.807Z,571.27
2023-02-15T07:26:51.252Z,579.10
2023-02-15T07:29:19.813Z,556.90
2023-02-15T07:31:49.662Z,555.23
2023-02-15T07:34:18.258Z,554.10
2023-02-15T07:36:46.788Z,567.53
2023-02-15T07:39:15.316Z,581.83
2023-02-15T07:41:43.749Z,585.70
2023-02-15T07:44:14.945Z,586.20
2023-02-15T07:46:43.801Z,615.03
2023-02-15T07:49:14.081Z,622.73
2023-02-15T07:51:42.674Z,571.43
2023-02-15T07:54:11.018Z,581.73
2023-02-15T07:56:39.604Z,579.40
2023-02-15T07:59:09.238Z,598.53
2023-02-15T08:01:39.386Z,572.27
2023-02-15T08:04:10.470Z,549.40
2023-02-15T08:06:40.656Z,532.10
2023-02-15T08:09:10.564Z,523.27
2023-02-15T08:11:40.881Z,521.83
2023-02-15T08:14:11.603Z,508.33
2023-02-15T08:16:41.566Z,499.30
2023-02-15T08:19:11.618Z,521.30
2023-02-15T08:21:44.036Z,511.87
2023-02-15T08:24:15.279Z,505.03
2023-02-15T08:26:46.013Z,522.60
2023-02-15T08:29:14.681Z,523.73
2023-02-15T08:31:43.249Z,521.77
2023-02-15T08:34:13.515Z,526.80
2023-02-15T08:36:43.550Z,496.37
2023-02-15T08:39:11.860Z,518.27
2023-02-15T08:41:41.831Z,501.75
2023-02-15T08:44:11.728Z,502.70
2023-02-15T08:46:42.608Z,486.10
2023-02-15T08:49:11.987Z,540.55
2023-02-15T08:51:42.138Z,544.90
2023-02-15T08:54:12.356Z,551.88
2023-02-15T08:56:42.651Z,559.90
2023-02-15T08:59:17.310Z,529.45
2023-02-15T09:01:46.751Z,598.22
2023-02-15T09:04:16.861Z,568.97
2023-02-15T09:07:06.607Z,597.55
2023-02-15T09:09:35.086Z,598.15
2023-02-15T09:12:03.843Z,586.08
2023-02-15T09:14:32.387Z,560.30
2023-02-15T09:17:00.836Z,546.20
2023-02-15T09:19:30.060Z,547.92
2023-02-15T09:21:59.609Z,539.28
2023-02-15T09:24:29.275Z,538.60
2023-02-15T09:26:57.830Z,508.92
2023-02-15T09:29:26.317Z,511.70
2023-02-15T09:31:54.881Z,488.52
2023-02-15T09:34:24.458Z,497.98
2023-02-15T09:36:53.479Z,511.60
2023-02-15T09:39:24.728Z,476.30
2023-02-15T09:42:11.950Z,490.15
2023-02-15T09:44:57.943Z,453.30
2023-02-15T09:47:59.492Z,426.77
2023-02-15T09:50:36.794Z,442.45
2023-02-15T09:53:24.015Z,405.50
2023-02-15T09:56:01.892Z,410.63
2023-02-15T09:58:40.477Z,413.80
2023-02-15T10:01:18.154Z,381.15
2023-02-15T10:03:58.887Z,373.58
2023-02-15T10:06:43.382Z,359.92
2023-02-15T10:09:25.312Z,365.52
2023-02-15T10:12:17.814Z,328.88
2023-02-15T10:15:08.276Z,348.25
2023-02-15T10:17:49.298Z,325.35
2023-02-15T10:20:29.128Z,321.30
2023-02-15T10:23:15.878Z,319.48
2023-02-15T10:25:49.206Z,299.05
2023-02-15T10:28:21.501Z,308.60
2023-02-15T10:30:53.113Z,295.85
2023-02-15T10:33:41.737Z,276.58
2023-02-15T10:36:25.497Z,290.58
2023-02-15T10:39:03.615Z,287.00
2023-02-15T10:41:42.484Z,276.13
2023-02-15T10:44:23.849Z,279.30
2023-02-15T10:47:07.345Z,290.13
2023-02-15T10:49:57.765Z,275.00
2023-02-15T10:52:39.356Z,237.38
2023-02-15T10:55:17.214Z,238.38
2023-02-15T10:58:00.926Z,214.55
2023-02-15T11:00:39.384Z,211.48
2023-02-15T11:03:22.635Z,196.75
2023-02-15T11:06:01.169Z,177.57
2023-02-15T11:08:34.784Z,171.90
2023-02-15T11:11:07.964Z,169.60
2023-02-15T11:13:41.798Z,154.68
2023-02-15T11:16:17.661Z,134.68
2023-02-15T11:18:53.452Z,136.40
2023-02-15T11:21:25.156Z,139.43
2023-02-15T11:23:54.480Z,123.40
2023-02-15T11:26:29.554Z,118.18
2023-02-15T11:29:02.053Z,113.78
2023-02-15T11:31:45.075Z,104.70
2023-02-15T11:34:22.849Z,104.05
2023-02-15T11:36:54.511Z,102.38
2023-02-15T11:39:25.286Z,101.40
2023-02-15T11:41:57.608Z,90.78
2023-02-15T11:44:30.496Z,83.07
2023-02-15T11:46:59.107Z,74.45
2023-02-15T11:49:31.723Z,82.88
2023-02-15T11:52:03.773Z,76.30
2023-02-15T11:54:36.545Z,78.93
2023-02-15T11:57:14.164Z,82.43
2023-02-15T11:59:46.376Z,73.30
2023-02-15T12:02:19.756Z,64.28
2023-02-15T12:04:55.096Z,66.63
2023-02-15T12:07:27.684Z,69.50
2023-02-15T12:10:05.128Z,107.25
2023-02-15T12:12:35.963Z,55.20
2023-02-15T12:15:07.172Z,60.83
2023-02-15T12:17:40.563Z,55.00
2023-02-15T12:20:26.892Z,50.13
2023-02-15T12:23:03.613Z,44.88
2023-02-15T12:25:37.827Z,40.70
2023-02-15T12:28:20.559Z,40.42
2023-02-15T12:30:49.208Z,44.03
2023-02-15T12:33:25.707Z,39.15
2023-02-15T12:36:02.390Z,43.05
2023-02-15T12:38:31.677Z,40.53
2023-02-15T12:41:02.519Z,40.20
2023-02-15T12:43:35.459Z,36.42
2023-02-15T12:46:22.691Z,45.63
2023-02-15T12:49:09.429Z,42.30
2023-02-15T12:51:48.462Z,38.50
2023-02-15T12:54:36.618Z,36.47
2023-02-15T12:57:26.495Z,43.67
2023-02-15T12:59:57.840Z,39.13
2023-02-15T13:02:30.162Z,41.30
2023-02-15T13:05:05.566Z,37.25
2023-02-15T13:07:35.794Z,36.80
2023-02-15T13:10:04.686Z,42.67
2023-02-15T13:12:35.195Z,43.05
2023-02-15T13:15:05.909Z,41.22
2023-02-15T13:17:35.863Z,34.70
2023-02-15T13:20:10.787Z,36.13
2023-02-15T13:22:45.042Z,31.85
2023-02-15T13:25:19.895Z,38.60
2023-02-15T13:27:52.631Z,35.10
2023-02-15T13:30:27.209Z,33.35
2023-02-15T13:33:00.534Z,33.00
2023-02-15T13:35:40.181Z,33.33
2023-02-15T13:38:24.852Z,35.83
2023-02-15T13:40:58.377Z,35.78
2023-02-15T13:43:37.674Z,33.58
2023-02-15T13:46:21.186Z,34.72
2023-02-15T13:49:01.673Z,34.45
2023-02-15T13:51:40.231Z,36.63
2023-02-15T13:54:33.014Z,40.83
2023-02-15T13:57:18.972Z,33.22
2023-02-15T13:59:57.392Z,33.05
2023-02-15T14:02:56.929Z,35.53
2023-02-15T14:05:35.767Z,33.08
2023-02-15T14:08:12.935Z,35.28
2023-02-15T14:10:48.840Z,34.63
2023-02-15T14:13:49.598Z,37.40
2023-02-15T14:16:28.712Z,37.17
2023-02-15T14:19:01.846Z,33.67
2023-02-15T14:21:34.374Z,37.10
2023-02-15T14:24:17.865Z,34.92
2023-02-15T14:26:55.304Z,36.97
2023-02-15T14:29:38.397Z,40.60
2023-02-15T14:32:12.998Z,34.67
2023-02-15T14:34:48.026Z,32.60
2023-02-15T14:37:23.237Z,35.50
2023-02-15T14:40:16.189Z,35.65
2023-02-15T14:42:53.777Z,34.53
2023-02-15T14:45:31.512Z,35.28
2023-02-15T14:48:11.364Z,35.47
2023-02-15T14:50:46.823Z,39.33
2023-02-15T14:53:24.601Z,40.88
2023-02-15T14:56:09.369Z,38.70
2023-02-15T14:58:40.192Z,46.90
2023-02-15T15:01:10.755Z,41.50
2023-02-15T15:03:51.461Z,38.47
2023-02-15T15:06:28.780Z,36.17
2023-02-15T15:09:03.558Z,43.78
2023-02-15T15:11:45.315Z,34.47
2023-02-15T15:14:39.473Z,37.45
2023-02-15T15:17:11.629Z,39.13
2023-02-15T15:20:01.690Z,36.47
2023-02-15T15:22:34.542Z,40.17
2023-02-15T15:25:04.090Z,39.28
2023-02-15T15:27:54.999Z,39.55
2023-02-15T15:31:03.474Z,41.85
2023-02-15T15:34:20.924Z,41.08
2023-02-15T15:37:24.987Z,42.53
2023-02-15T15:40:31.676Z,37.92
2023-02-15T15:43:35.028Z,42.88
2023-02-15T15:46:35.757Z,42.85
2023-02-15T15:49:08.643Z,38.03
2023-02-15T15:51:41.809Z,45.08
2023-02-15T15:54:18.612Z,44.30
2023-02-15T15:56:51.921Z,43.10
2023-02-15T15:59:24.162Z,39.08
2023-02-15T16:01:52.766Z,41.58
2023-02-15T16:04:30.901Z,45.05
2023-02-15T16:07:00.109Z,39.70
2023-02-15T16:09:30.867Z,39.53
2023-02-15T16:12:03.549Z,48.85
2023-02-15T16:14:33.970Z,52.30
2023-02-15T16:17:06.366Z,48.55
2023-02-15T16:19:38.020Z,47.40
2023-02-15T16:22:12.964Z,53.22
2023-02-15T16:24:59.612Z,52.40
2023-02-15T16:27:37.027Z,52.97
2023-02-15T16:30:29.220Z,47.60
2023-02-15T16:33:06.273Z,42.95
2023-02-15T16:35:35.444Z,48.85
2023-02-15T16:38:04.485Z,46.08
2023-02-15T16:40:46.104Z,45.92
2023-02-15T16:43:19.209Z,47.10
2023-02-15T16:45:48.446Z,44.08
2023-02-15T16:48:22.411Z,48.17
2023-02-15T16:50:54.052Z,49.78
2023-02-15T16:53:25.726Z,48.50
2023-02-15T16:55:59.220Z,45.47
2023-02-15T16:58:34.353Z,47.17
2023-02-15T17:01:05.605Z,50.90
2023-02-15T17:03:34.241Z,49.85
2023-02-15T17:06:05.585Z,43.35
2023-02-15T17:08:35.810Z,40.00
2023-02-15T17:11:16.151Z,51.60
2023-02-15T17:14:23.053Z,41.42
2023-02-15T17:16:55.207Z,41.45
2023-02-15T17:19:27.186Z,42.05
2023-02-15T17:21:58.511Z,46.25
2023-02-15T17:24:39.498Z,45.33
2023-02-15T17:27:16.852Z,44.85
2023-02-15T17:29:49.758Z,49.50
2023-02-15T17:32:21.882Z,48.53
2023-02-15T17:35:00.472Z,47.08
2023-02-15T17:37:34.048Z,49.88
2023-02-15T17:40:08.188Z,52.38
2023-02-15T17:42:39.153Z,62.17
2023-02-15T17:45:11.543Z,52.72
2023-02-15T17:47:41.897Z,53.88
2023-02-15T17:50:18.882Z,47.05
2023-02-15T17:52:47.731Z,46.28
2023-02-15T17:55:35.362Z,51.78
2023-02-15T17:58:07.954Z,44.30
2023-02-15T18:00:56.217Z,45.72
2023-02-15T18:03:43.801Z,46.38
2023-02-15T18:06:35.013Z,47.40
2023-02-15T18:09:22.008Z,44.70
2023-02-15T18:11:50.724Z,52.20
2023-02-15T18:14:20.667Z,51.33
2023-02-15T18:16:49.456Z,48.85
2023-02-15T18:19:20.178Z,51.10
2023-02-15T18:21:49.601Z,47.75
2023-02-15T18:24:20.131Z,49.40
2023-02-15T18:26:49.867Z,52.85
2023-02-15T18:29:18.551Z,48.30
2023-02-15T18:31:52.940Z,55.20
2023-02-15T18:34:25.880Z,55.08
2023-02-15T18:36:55.254Z,60.30
2023-02-15T18:39:31.177Z,57.33
2023-02-15T18:42:00.018Z,55.28
2023-02-15T18:44:28.530Z,52.90
2023-02-15T18:46:58.598Z,51.95
2023-02-15T18:49:26.963Z,60.70
2023-02-15T18:51:55.650Z,56.50
2023-02-15T18:54:26.529Z,51.22
2023-02-15T18:56:57.935Z,55.63
2023-02-15T18:59:30.615Z,58.88
2023-02-15T19:02:01.242Z,61.28
2023-02-15T19:04:32.438Z,58.22
2023-02-15T19:07:00.873Z,58.58
2023-02-15T19:09:30.215Z,57.30
2023-02-15T19:11:59.949Z,57.25
2023-02-15T19:14:30.983Z,63.42
2023-02-15T19:17:02.764Z,61.97
2023-02-15T19:19:31.248Z,63.58
2023-02-15T19:22:00.453Z,55.17
2023-02-15T19:24:39.367Z,66.00
2023-02-15T19:27:09.453Z,61.90
2023-02-15T19:29:38.330Z,58.05
2023-02-15T19:32:12.663Z,63.08
2023-02-15T19:34:41.783Z,59.63
2023-02-15T19:37:21.392Z,60.35
2023-02-15T19:39:50.163Z,55.03
2023-02-15T19:42:23.550Z,64.10
2023-02-15T19:44:52.265Z,63.97
2023-02-15T19:47:22.879Z,68.97
2023-02-15T19:49:51.326Z,61.47
2023-02-15T19:52:24.192Z,67.93
2023-02-15T19:54:55.915Z,69.65
2023-02-15T19:57:25.014Z,71.30
2023-02-15T19:59:54.394Z,63.13
2023-02-15T20:02:24.299Z,59.38
2023-02-15T20:04:52.730Z,73.68
2023-02-15T20:07:26.899Z,68.97
2023-02-15T20:09:56.382Z,64.68
2023-02-15T20:12:26.021Z,72.57
2023-02-15T20:14:54.551Z,70.90
2023-02-15T20:17:24.452Z,70.43
2023-02-15T20:19:52.883Z,74.57
2023-02-15T20:22:25.000Z,69.63
2023-02-15T20:24:56.308Z,78.68
2023-02-15T20:27:25.180Z,81.90
2023-02-15T20:29:56.820Z,76.82
2023-02-15T20:32:27.212Z,80.50
2023-02-15T20:34:55.614Z,78.97
2023-02-15T20:37:28.813Z,82.22
2023-02-15T20:39:57.356Z,79.40
2023-02-15T20:42:25.781Z,82.43
2023-02-15T20:44:54.306Z,81.53
2023-02-15T20:47:22.780Z,83.18
2023-02-15T20:49:54.236Z,79.13
2023-02-15T20:52:22.973Z,84.63
2023-02-15T20:54:51.551Z,88.65
2023-02-15T20:57:19.928Z,90.55
2023-02-15T20:59:48.418Z,83.82
2023-02-15T21:02:20.295Z,86.95
2023-02-15T21:04:48.960Z,93.80
2023-02-15T21:07:20.467Z,86.10
2023-02-15T21:09:49.781Z,86.80
2023-02-15T21:12:21.195Z,88.30
2023-02-15T21:14:50.231Z,84.05
2023-02-15T21:17:18.654Z,85.15
2023-02-15T21:19:47.356Z,83.38
2023-02-15T21:22:17.373Z,84.50
2023-02-15T21:24:51.939Z,82.03
2023-02-15T21:27:20.425Z,86.90
2023-02-15T21:29:49.288Z,87.28
2023-02-15T21:32:18.880Z,82.20
2023-02-15T21:34:47.368Z,78.95
2023-02-15T21:37:29.020Z,84.30
2023-02-15T21:39:59.064Z,84.75
2023-02-15T21:42:45.254Z,79.80
2023-02-15T21:45:35.184Z,80.18
2023-02-15T21:48:05.728Z,80.30
2023-02-15T21:50:52.832Z,80.47
2023-02-15T21:53:23.738Z,73.57
2023-02-15T21:55:55.992Z,77.63
2023-02-15T21:58:27.164Z,84.20
2023-02-15T22:00:57.795Z,81.90
2023-02-15T22:03:27.884Z,78.15
2023-02-15T22:05:56.198Z,80.10
2023-02-15T22:08:24.755Z,74.30
2023-02-15T22:10:55.640Z,76.35
2023-02-15T22:13:29.346Z,84.25
2023-02-15T22:15:58.503Z,81.30
2023-02-15T22:18:32.261Z,79.80
2023-02-15T22:21:03.130Z,72.38
2023-02-15T22:23:33.458Z,73.63
2023-02-15T22:26:07.785Z,75.45
2023-02-15T22:28:38.402Z,77.10
2023-02-15T22:31:13.162Z,80.18
2023-02-15T22:33:42.223Z,80.95
2023-02-15T22:36:25.709Z,77.05
2023-02-15T22:38:54.981Z,79.03
2023-02-15T22:41:26.708Z,76.43
2023-02-15T22:43:55.275Z,75.90
2023-02-15T22:46:25.724Z,78.97
2023-02-15T22:48:54.181Z,82.30
2023-02-15T22:51:24.660Z,83.97
2023-02-15T22:53:54.244Z,85.55
2023-02-15T22:56:27.684Z,82.97
2023-02-15T22:59:01.748Z,79.18
2023-02-15T23:01:34.304Z,82.90
2023-02-15T23:04:04.095Z,87.15
2023-02-15T23:06:35.679Z,87.35
2023-02-15T23:09:04.248Z,82.22
2023-02-15T23:11:34.067Z,86.55
2023-02-15T23:14:03.560Z,87.20
2023-02-15T23:16:32.570Z,85.32
2023-02-15T23:19:01.038Z,85.97
2023-02-15T23:21:34.899Z,83.95
2023-02-15T23:24:17.032Z,88.57
2023-02-15T23:26:46.825Z,87.03
2023-02-15T23:29:17.336Z,82.13
2023-02-15T23:31:47.501Z,82.18
2023-02-15T23:34:18.638Z,85.72
2023-02-15T23:36:47.453Z,81.47
2023-02-15T23:39:36.105Z,80.78
2023-02-15T23:42:11.052Z,77.32
2023-02-15T23:44:40.719Z,79.32
2023-02-15T23:47:21.602Z,80.57
2023-02-15T23:49:50.330Z,84.15
2023-02-15T23:52:18.727Z,81.72
2023-02-15T23:54:47.479Z,79.90
2023-02-15T23:57:17.264Z,83.78
2023-02-15T23:59:46.377Z,79.60
